createdAt,value
2019-02-20T00:01:36.916Z,12.13
2019-02-20T00:04:05.875Z,10.73
2019-02-20T00:06:34.550Z,11.87
2019-02-20T00:09:04.706Z,11.70
2019-02-20T00:11:33.289Z,10.97
2019-02-20T00:14:01.878Z,11.13
2019-02-20T00:16:30.486Z,11.43
2019-02-20T00:18:59.094Z,10.63
2019-02-20T00:21:28.000Z,11.07
2019-02-20T00:23:56.591Z,11.53
2019-02-20T00:26:25.161Z,11.53
2019-02-20T00:28:53.770Z,11.87
2019-02-20T00:31:22.425Z,10.67
2019-02-20T00:33:51.035Z,12.30
2019-02-20T00:36:20.256Z,11.90
2019-02-20T00:38:48.918Z,10.90
2019-02-20T00:41:17.512Z,11.23
2019-02-20T00:43:50.857Z,11.80
2019-02-20T00:46:29.078Z,11.57
2019-02-20T00:49:20.461Z,10.37
2019-02-20T00:52:05.162Z,11.97
2019-02-20T00:54:33.900Z,13.90
2019-02-20T00:57:02.747Z,13.10
2019-02-20T00:59:31.847Z,12.67
2019-02-20T01:02:00.556Z,11.50
2019-02-20T01:04:29.600Z,12.30
2019-02-20T01:06:58.211Z,12.33
2019-02-20T01:09:26.991Z,12.17
2019-02-20T01:11:55.748Z,13.17
2019-02-20T01:14:24.565Z,11.00
2019-02-20T01:16:53.287Z,11.67
2019-02-20T01:19:21.860Z,11.30
2019-02-20T01:21:50.654Z,12.40
2019-02-20T01:24:19.367Z,10.93
2019-02-20T01:26:47.977Z,10.87
2019-02-20T01:29:16.563Z,10.43
2019-02-20T01:31:45.458Z,11.03
2019-02-20T01:34:14.108Z,11.03
2019-02-20T01:36:42.685Z,10.73
2019-02-20T01:39:11.356Z,9.77
2019-02-20T01:41:39.914Z,9.97
2019-02-20T01:44:08.499Z,10.10
2019-02-20T01:46:37.116Z,10.27
2019-02-20T01:49:05.774Z,10.17
2019-02-20T01:51:34.369Z,10.10
2019-02-20T01:54:03.171Z,11.47
2019-02-20T01:56:31.913Z,10.40
2019-02-20T01:59:00.566Z,9.93
2019-02-20T02:01:29.448Z,11.33
2019-02-20T02:03:58.207Z,10.40
2019-02-20T02:06:26.785Z,9.70
2019-02-20T02:08:55.360Z,9.47
2019-02-20T02:11:24.446Z,10.13
2019-02-20T02:13:53.030Z,9.33
2019-02-20T02:16:21.614Z,10.60
2019-02-20T02:18:50.199Z,10.40
2019-02-20T02:21:18.788Z,10.60
2019-02-20T02:23:47.741Z,11.27
2019-02-20T02:26:16.490Z,10.40
2019-02-20T02:28:45.371Z,10.40
2019-02-20T02:31:14.064Z,10.40
2019-02-20T02:33:42.721Z,11.13
2019-02-20T02:36:11.513Z,10.97
2019-02-20T02:38:40.106Z,10.20
2019-02-20T02:41:09.028Z,11.00
2019-02-20T02:43:37.831Z,12.23
2019-02-20T02:46:06.711Z,11.53
2019-02-20T02:48:35.391Z,12.40
2019-02-20T02:51:04.109Z,12.43
2019-02-20T02:53:32.679Z,11.03
2019-02-20T02:56:01.264Z,11.80
2019-02-20T02:58:29.846Z,12.30
2019-02-20T03:00:58.472Z,12.40
2019-02-20T03:03:27.049Z,11.33
2019-02-20T03:05:55.892Z,13.00
2019-02-20T03:08:24.511Z,12.13
2019-02-20T03:10:53.100Z,12.23
2019-02-20T03:13:21.737Z,10.30
2019-02-20T03:15:50.528Z,11.20
2019-02-20T03:18:19.115Z,11.43
2019-02-20T03:20:47.693Z,10.97
2019-02-20T03:23:16.285Z,11.17
2019-02-20T03:25:44.866Z,11.30
2019-02-20T03:28:13.483Z,10.33
2019-02-20T03:30:42.093Z,11.23
2019-02-20T03:33:10.670Z,11.20
2019-02-20T03:35:40.293Z,12.17
2019-02-20T03:38:08.971Z,11.67
2019-02-20T03:40:37.807Z,11.70
2019-02-20T03:43:06.404Z,11.93
2019-02-20T03:45:35.236Z,13.30
2019-02-20T03:48:04.093Z,12.47
2019-02-20T03:50:33.144Z,11.63
2019-02-20T03:53:01.983Z,11.90
2019-02-20T03:55:30.910Z,11.40
2019-02-20T03:57:59.523Z,12.40
2019-02-20T04:00:28.114Z,11.53
2019-02-20T04:02:56.747Z,11.10
2019-02-20T04:05:25.433Z,10.80
2019-02-20T04:07:54.463Z,12.60
2019-02-20T04:10:23.310Z,12.40
2019-02-20T04:12:52.133Z,12.03
2019-02-20T04:15:20.746Z,12.40
2019-02-20T04:17:49.389Z,12.60
2019-02-20T04:20:18.042Z,12.33
2019-02-20T04:22:46.915Z,12.57
2019-02-20T04:25:15.709Z,12.27
2019-02-20T04:27:44.330Z,12.07
2019-02-20T04:30:13.236Z,12.67
2019-02-20T04:32:42.383Z,12.00
2019-02-20T04:35:11.649Z,11.90
2019-02-20T04:37:40.499Z,13.20
2019-02-20T04:40:09.133Z,12.93
2019-02-20T04:42:37.862Z,11.63
2019-02-20T04:45:06.856Z,12.50
2019-02-20T04:47:35.532Z,11.00
2019-02-20T04:50:04.152Z,11.77
2019-02-20T04:52:32.732Z,12.67
2019-02-20T04:55:02.034Z,10.87
2019-02-20T04:57:30.924Z,11.83
2019-02-20T04:59:59.727Z,11.73
2019-02-20T05:02:28.547Z,11.80
2019-02-20T05:04:57.249Z,11.93
2019-02-20T05:07:25.865Z,11.20
2019-02-20T05:09:54.683Z,12.90
2019-02-20T05:12:23.769Z,10.80
2019-02-20T05:14:53.097Z,11.10
2019-02-20T05:17:21.710Z,11.07
2019-02-20T05:19:50.371Z,11.80
2019-02-20T05:22:19.200Z,11.97
2019-02-20T05:24:48.505Z,10.77
2019-02-20T05:27:17.087Z,10.50
2019-02-20T05:29:45.939Z,11.00
2019-02-20T05:32:14.624Z,11.10
2019-02-20T05:34:43.259Z,12.27
2019-02-20T05:37:11.930Z,11.50
2019-02-20T05:39:40.951Z,11.23
2019-02-20T05:42:09.539Z,11.30
2019-02-20T05:44:38.254Z,11.67
2019-02-20T05:47:06.825Z,10.20
2019-02-20T05:49:35.490Z,10.60
2019-02-20T05:52:04.074Z,9.47
2019-02-20T05:54:35.006Z,10.37
2019-02-20T05:57:03.333Z,10.13
2019-02-20T05:59:32.238Z,10.27
2019-02-20T06:02:01.116Z,8.73
2019-02-20T06:04:29.702Z,8.70
2019-02-20T06:06:58.324Z,10.17
2019-02-20T06:09:27.227Z,9.90
2019-02-20T06:11:55.798Z,9.03
2019-02-20T06:14:24.529Z,9.37
2019-02-20T06:16:53.267Z,8.97
2019-02-20T06:19:21.978Z,9.20
2019-02-20T06:21:50.853Z,9.07
2019-02-20T06:24:19.906Z,8.40
2019-02-20T06:26:48.540Z,8.13
2019-02-20T06:29:17.247Z,9.40
2019-02-20T06:31:45.842Z,8.97
2019-02-20T06:34:14.421Z,8.37
2019-02-20T06:36:43.061Z,8.23
2019-02-20T06:39:11.780Z,7.63
2019-02-20T06:41:40.610Z,7.80
2019-02-20T06:44:09.199Z,11.00
2019-02-20T06:46:38.043Z,7.83
2019-02-20T06:49:06.753Z,8.37
2019-02-20T06:51:35.334Z,9.07
2019-02-20T06:54:04.169Z,8.63
2019-02-20T06:56:33.259Z,7.57
2019-02-20T06:59:01.905Z,7.13
2019-02-20T07:01:30.477Z,8.27
2019-02-20T07:03:59.061Z,7.73
2019-02-20T07:06:53.428Z,7.70
2019-02-20T07:10:09.822Z,7.60
2019-02-20T07:12:52.618Z,7.00
2019-02-20T07:16:09.548Z,7.07
2019-02-20T07:19:08.374Z,8.03
2019-02-20T07:21:45.919Z,8.27
2019-02-20T07:24:23.323Z,7.03
2019-02-20T07:27:02.796Z,8.07
2019-02-20T07:29:55.000Z,7.60
2019-02-20T07:32:23.618Z,7.80
2019-02-20T07:34:52.205Z,6.97
2019-02-20T07:37:20.841Z,7.03
2019-02-20T07:39:49.436Z,7.80
2019-02-20T07:42:18.255Z,7.63
2019-02-20T07:44:46.864Z,7.30
2019-02-20T07:47:15.686Z,7.57
2019-02-20T07:49:44.292Z,7.37
2019-02-20T07:52:13.038Z,7.67
2019-02-20T07:54:41.871Z,7.30
2019-02-20T07:57:10.712Z,8.60
2019-02-20T07:59:39.327Z,8.50
2019-02-20T08:02:07.955Z,8.30
2019-02-20T08:04:36.706Z,8.60
2019-02-20T08:07:05.413Z,7.70
2019-02-20T08:09:35.188Z,9.43
2019-02-20T08:12:03.867Z,7.57
2019-02-20T08:14:32.554Z,8.17
2019-02-20T08:17:01.157Z,7.97
2019-02-20T08:19:30.087Z,8.37
2019-02-20T08:21:58.821Z,8.27
2019-02-20T08:24:27.395Z,9.03
2019-02-20T08:26:55.989Z,8.47
2019-02-20T08:29:24.581Z,8.50
2019-02-20T08:31:54.005Z,8.47
2019-02-20T08:34:22.711Z,8.13
2019-02-20T08:36:51.389Z,8.43
2019-02-20T08:39:19.976Z,7.87
2019-02-20T08:41:48.613Z,8.10
2019-02-20T08:44:17.293Z,7.57
2019-02-20T08:46:45.881Z,6.80
2019-02-20T08:49:14.526Z,7.33
2019-02-20T08:51:43.132Z,7.30
2019-02-20T08:54:11.948Z,7.93
2019-02-20T08:56:40.533Z,8.30
2019-02-20T08:59:09.236Z,7.63
2019-02-20T09:01:37.853Z,8.70
2019-02-20T09:04:06.468Z,7.37
2019-02-20T09:06:35.067Z,7.60
2019-02-20T09:09:04.899Z,6.80
2019-02-20T09:11:33.516Z,7.73
2019-02-20T09:14:02.096Z,8.03
2019-02-20T09:16:30.791Z,7.73
2019-02-20T09:18:59.417Z,8.30
2019-02-20T09:21:28.037Z,7.47
2019-02-20T09:23:56.911Z,7.77
2019-02-20T09:26:25.489Z,7.17
2019-02-20T09:28:54.063Z,9.00
2019-02-20T09:31:22.958Z,8.80
2019-02-20T09:33:51.624Z,8.23
2019-02-20T09:36:20.246Z,9.60
2019-02-20T09:38:48.872Z,10.47
2019-02-20T09:41:17.939Z,10.80
2019-02-20T09:43:48.053Z,11.17
2019-02-20T09:46:16.780Z,11.20
2019-02-20T09:48:45.458Z,12.73
2019-02-20T09:51:14.127Z,11.10
2019-02-20T09:53:42.775Z,11.00
2019-02-20T09:56:11.389Z,11.17
2019-02-20T09:58:39.958Z,11.90
2019-02-20T10:01:08.571Z,11.10
2019-02-20T10:03:37.238Z,10.43
2019-02-20T10:06:06.096Z,10.07
2019-02-20T10:08:34.787Z,9.47
2019-02-20T10:11:03.383Z,8.77
2019-02-20T10:13:32.242Z,9.40
2019-02-20T10:16:00.846Z,8.60
2019-02-20T10:18:29.938Z,10.77
2019-02-20T10:20:58.558Z,10.27
2019-02-20T10:23:27.189Z,9.30
2019-02-20T10:26:00.781Z,9.00
2019-02-20T10:28:26.340Z,9.70
2019-02-20T10:30:56.028Z,8.63
2019-02-20T10:33:24.929Z,9.47
2019-02-20T10:35:53.507Z,9.70
2019-02-20T10:38:22.157Z,9.27
2019-02-20T10:40:50.777Z,7.00
2019-02-20T10:43:19.431Z,9.43
2019-02-20T10:45:48.381Z,9.77
2019-02-20T10:48:16.982Z,9.30
2019-02-20T10:50:45.625Z,8.30
2019-02-20T10:53:14.280Z,8.10
2019-02-20T10:55:42.978Z,9.43
2019-02-20T10:58:11.707Z,8.30
2019-02-20T11:00:40.374Z,8.63
2019-02-20T11:03:09.025Z,9.53
2019-02-20T11:05:37.620Z,8.70
2019-02-20T11:08:06.359Z,9.37
2019-02-20T11:10:35.311Z,8.23
2019-02-20T11:13:04.092Z,8.13
2019-02-20T11:15:32.710Z,8.23
2019-02-20T11:18:01.657Z,9.17
2019-02-20T11:20:30.281Z,8.93
2019-02-20T11:22:58.870Z,11.53
2019-02-20T11:25:27.556Z,10.47
2019-02-20T11:27:56.162Z,10.20
2019-02-20T11:30:24.761Z,9.97
2019-02-20T11:32:53.441Z,9.90
2019-02-20T11:35:22.302Z,10.47
2019-02-20T11:37:50.986Z,10.00
2019-02-20T11:40:19.610Z,10.27
2019-02-20T11:42:48.440Z,12.00
2019-02-20T11:45:17.049Z,9.50
2019-02-20T11:47:45.651Z,10.20
2019-02-20T11:50:14.634Z,9.50
2019-02-20T11:52:43.673Z,10.07
2019-02-20T11:55:12.369Z,9.70
2019-02-20T11:57:41.143Z,10.10
2019-02-20T12:00:10.867Z,9.73
2019-02-20T12:02:39.623Z,11.17
2019-02-20T12:05:08.989Z,10.80
2019-02-20T12:07:37.571Z,11.20
2019-02-20T12:10:06.810Z,9.40
2019-02-20T12:12:35.574Z,10.43
2019-02-20T12:15:04.381Z,9.60
2019-02-20T12:17:33.001Z,10.83
2019-02-20T12:20:01.587Z,9.70
2019-02-20T12:22:30.204Z,11.70
2019-02-20T12:24:59.341Z,10.57
2019-02-20T12:27:28.179Z,9.73
2019-02-20T12:29:56.841Z,10.13
2019-02-20T12:32:25.648Z,8.83
2019-02-20T12:34:54.506Z,9.20
2019-02-20T12:37:25.010Z,9.20
2019-02-20T12:39:53.556Z,10.07
2019-02-20T12:42:22.253Z,9.73
2019-02-20T12:44:50.899Z,8.60
2019-02-20T12:47:20.052Z,10.00
2019-02-20T12:49:48.691Z,8.93
2019-02-20T12:52:17.434Z,8.63
2019-02-20T12:54:46.013Z,9.23
2019-02-20T12:57:14.848Z,7.73
2019-02-20T12:59:43.457Z,9.30
2019-02-20T13:02:12.548Z,8.93
2019-02-20T13:04:41.112Z,9.50
2019-02-20T13:07:09.928Z,9.53
2019-02-20T13:09:38.730Z,9.17
2019-02-20T13:12:07.415Z,8.37
2019-02-20T13:14:36.120Z,8.20
2019-02-20T13:17:04.908Z,8.20
2019-02-20T13:19:33.737Z,8.00
2019-02-20T13:22:02.584Z,8.80
2019-02-20T13:24:32.043Z,8.93
2019-02-20T13:27:07.592Z,8.43
2019-02-20T13:29:32.213Z,8.80
2019-02-20T13:32:00.833Z,7.60
2019-02-20T13:34:29.496Z,8.50
2019-02-20T13:36:58.541Z,8.80
2019-02-20T13:39:28.190Z,8.13
2019-02-20T13:41:56.960Z,7.50
2019-02-20T13:44:25.827Z,6.93
2019-02-20T13:46:54.913Z,7.90
2019-02-20T13:49:24.199Z,7.33
2019-02-20T13:51:52.806Z,7.90
2019-02-20T13:54:21.645Z,6.80
2019-02-20T13:56:50.558Z,7.67
2019-02-20T13:59:19.228Z,7.53
2019-02-20T14:01:47.925Z,6.67
2019-02-20T14:04:16.816Z,7.73
2019-02-20T14:06:45.522Z,7.30
2019-02-20T14:09:15.230Z,8.07
2019-02-20T14:11:44.002Z,7.70
2019-02-20T14:14:12.772Z,6.93
2019-02-20T14:16:41.469Z,8.40
2019-02-20T14:19:10.671Z,7.70
2019-02-20T14:21:39.257Z,7.90
2019-02-20T14:24:07.846Z,7.27
2019-02-20T14:26:36.516Z,7.53
2019-02-20T14:29:05.313Z,7.77
2019-02-20T14:31:33.940Z,7.03
2019-02-20T14:34:02.615Z,7.40
2019-02-20T14:36:31.682Z,7.63
2019-02-20T14:39:00.466Z,8.13
2019-02-20T14:41:29.052Z,8.53
2019-02-20T14:43:57.712Z,8.00
2019-02-20T14:46:26.438Z,7.27
2019-02-20T14:48:55.285Z,8.50
2019-02-20T14:51:23.893Z,8.17
2019-02-20T14:53:54.227Z,8.33
2019-02-20T14:56:22.975Z,8.30
2019-02-20T14:58:51.653Z,7.67
2019-02-20T15:01:21.527Z,7.60
2019-02-20T15:03:50.181Z,8.07
2019-02-20T15:06:19.845Z,7.30
2019-02-20T15:08:48.625Z,7.53
2019-02-20T15:11:17.364Z,7.67
2019-02-20T15:13:46.225Z,6.87
2019-02-20T15:16:14.855Z,8.00
2019-02-20T15:18:43.408Z,7.93
2019-02-20T15:21:12.329Z,9.20
2019-02-20T15:23:41.449Z,8.77
2019-02-20T15:26:10.347Z,9.10
2019-02-20T15:28:39.011Z,8.93
2019-02-20T15:31:07.682Z,9.07
2019-02-20T15:33:36.296Z,9.20
2019-02-20T15:36:05.430Z,9.37
2019-02-20T15:38:34.178Z,10.33
2019-02-20T15:41:03.480Z,9.50
2019-02-20T15:43:32.079Z,10.17
2019-02-20T15:46:00.839Z,9.40
2019-02-20T15:48:29.476Z,9.53
2019-02-20T15:50:58.096Z,9.03
2019-02-20T15:53:26.785Z,9.30
2019-02-20T15:55:55.472Z,10.20
2019-02-20T15:58:24.725Z,9.50
2019-02-20T16:00:53.460Z,9.80
2019-02-20T16:03:22.146Z,10.70
2019-02-20T16:05:50.838Z,10.07
2019-02-20T16:08:19.552Z,10.10
2019-02-20T16:10:48.318Z,10.10
2019-02-20T16:13:17.339Z,10.30
2019-02-20T16:15:46.123Z,10.03
2019-02-20T16:18:14.700Z,9.77
2019-02-20T16:20:43.412Z,9.97
2019-02-20T16:23:12.039Z,10.00
2019-02-20T16:25:40.663Z,9.30
2019-02-20T16:28:09.340Z,9.40
2019-02-20T16:30:38.212Z,9.50
2019-02-20T16:33:07.060Z,9.47
2019-02-20T16:35:35.807Z,9.70
2019-02-20T16:38:04.385Z,9.20
2019-02-20T16:40:33.047Z,9.47
2019-02-20T16:43:03.803Z,9.07
2019-02-20T16:45:32.306Z,9.93
2019-02-20T16:48:00.975Z,9.50
2019-02-20T16:50:29.657Z,9.77
2019-02-20T16:52:58.239Z,9.80
2019-02-20T16:55:26.949Z,10.33
2019-02-20T16:57:57.002Z,8.97
2019-02-20T17:00:25.854Z,9.87
2019-02-20T17:02:55.009Z,9.27
2019-02-20T17:05:23.744Z,9.17
2019-02-20T17:07:52.398Z,8.90
2019-02-20T17:10:21.013Z,10.00
2019-02-20T17:12:50.168Z,8.70
2019-02-20T17:15:18.868Z,9.50
2019-02-20T17:17:47.791Z,8.63
2019-02-20T17:20:17.759Z,9.00
2019-02-20T17:22:46.913Z,9.30
2019-02-20T17:25:16.514Z,9.33
2019-02-20T17:27:45.189Z,8.60
2019-02-20T17:30:14.302Z,9.80
2019-02-20T17:32:43.467Z,10.13
2019-02-20T17:35:12.343Z,9.20
2019-02-20T17:37:41.572Z,10.50
2019-02-20T17:40:10.369Z,9.23
2019-02-20T17:42:39.056Z,9.83
2019-02-20T17:45:09.154Z,10.00
2019-02-20T17:47:38.133Z,11.60
2019-02-20T17:50:10.059Z,10.70
2019-02-20T17:52:38.831Z,10.27
2019-02-20T17:55:08.098Z,10.30
2019-02-20T17:57:36.769Z,11.27
2019-02-20T18:00:08.204Z,9.77
2019-02-20T18:02:36.955Z,10.93
2019-02-20T18:05:05.849Z,10.63
2019-02-20T18:07:34.966Z,11.33
2019-02-20T18:10:03.724Z,12.37
2019-02-20T18:12:32.608Z,11.50
2019-02-20T18:15:01.286Z,12.33
2019-02-20T18:17:30.131Z,15.03
2019-02-20T18:19:58.729Z,15.30
2019-02-20T18:22:27.381Z,13.90
2019-02-20T18:24:56.193Z,13.20
2019-02-20T18:27:25.063Z,13.50
2019-02-20T18:29:53.823Z,13.03
2019-02-20T18:32:22.441Z,12.83
2019-02-20T18:34:51.115Z,12.97
2019-02-20T18:37:19.939Z,13.90
2019-02-20T18:39:48.626Z,13.53
2019-02-20T18:42:17.220Z,13.90
2019-02-20T18:44:45.922Z,13.10
2019-02-20T18:47:14.562Z,13.90
2019-02-20T18:49:43.123Z,12.97
2019-02-20T18:52:11.834Z,12.50
2019-02-20T18:54:40.448Z,13.80
2019-02-20T18:57:09.603Z,13.03
2019-02-20T18:59:38.300Z,12.47
2019-02-20T19:02:07.345Z,13.03
2019-02-20T19:04:35.998Z,12.20
2019-02-20T19:07:14.271Z,13.77
2019-02-20T19:09:45.625Z,12.67
2019-02-20T19:12:56.602Z,12.30
2019-02-20T19:15:52.530Z,13.57
2019-02-20T19:18:59.968Z,16.40
2019-02-20T19:21:31.899Z,13.73
2019-02-20T19:24:24.386Z,13.77
2019-02-20T19:27:13.928Z,13.93
2019-02-20T19:30:32.794Z,12.90
2019-02-20T19:33:42.323Z,14.07
2019-02-20T19:36:34.937Z,12.13
2019-02-20T19:39:13.009Z,12.60
2019-02-20T19:42:26.059Z,12.33
2019-02-20T19:45:13.787Z,13.17
2019-02-20T19:48:07.796Z,12.30
2019-02-20T19:50:51.029Z,11.73
2019-02-20T19:53:51.804Z,12.30
2019-02-20T19:57:04.951Z,12.60
2019-02-20T20:00:21.140Z,11.40
2019-02-20T20:03:22.787Z,12.03
2019-02-20T20:06:42.403Z,12.20
2019-02-20T20:09:33.795Z,13.03
2019-02-20T20:12:33.469Z,12.20
2019-02-20T20:15:21.624Z,12.70
2019-02-20T20:18:31.565Z,11.70
2019-02-20T20:21:29.690Z,12.10
2019-02-20T20:24:18.298Z,10.93
2019-02-20T20:27:13.073Z,11.40
2019-02-20T20:30:38.345Z,12.87
2019-02-20T20:33:49.633Z,12.30
2019-02-20T20:36:55.129Z,11.67
2019-02-20T20:40:01.396Z,10.70
2019-02-20T20:43:00.996Z,10.50
2019-02-20T20:46:25.204Z,9.80
2019-02-20T20:49:17.188Z,9.50
2019-02-20T20:52:32.604Z,12.67
2019-02-20T20:55:30.563Z,11.20
2019-02-20T20:58:40.995Z,9.50
2019-02-20T21:01:39.171Z,9.70
2019-02-20T21:04:37.086Z,9.20
2019-02-20T21:07:38.180Z,9.93
2019-02-20T21:10:46.776Z,10.50
2019-02-20T21:14:08.851Z,11.00
2019-02-20T21:17:30.178Z,9.80
2019-02-20T21:20:36.227Z,11.03
2019-02-20T21:23:49.343Z,9.77
2019-02-20T21:26:34.245Z,10.63
2019-02-20T21:29:31.083Z,9.63
2019-02-20T21:32:31.839Z,10.07
2019-02-20T21:35:06.797Z,9.80
2019-02-20T21:38:24.709Z,10.03
2019-02-20T21:41:44.125Z,10.07
2019-02-20T21:45:03.138Z,10.40
2019-02-20T21:48:28.918Z,10.33
2019-02-20T21:51:17.329Z,9.73
2019-02-20T21:54:17.760Z,9.63
2019-02-20T21:56:54.091Z,10.20
2019-02-20T22:00:01.236Z,9.83
2019-02-20T22:03:08.401Z,10.23
2019-02-20T22:06:03.885Z,10.40
2019-02-20T22:09:11.011Z,10.30
2019-02-20T22:16:01.864Z,9.20
2019-02-20T22:19:08.992Z,10.50
2019-02-20T22:22:05.769Z,9.83
2019-02-20T22:25:02.989Z,9.73
2019-02-20T22:27:57.637Z,10.03
2019-02-20T22:30:55.508Z,11.40
2019-02-20T22:34:02.689Z,11.20
2019-02-20T22:37:02.952Z,11.90
2019-02-20T22:39:54.955Z,9.87
2019-02-20T22:42:55.505Z,11.37
2019-02-20T22:46:02.630Z,12.63
2019-02-20T22:49:09.739Z,9.93
2019-02-20T22:52:00.328Z,11.50
2019-02-20T22:54:54.119Z,11.40
2019-02-20T22:58:19.065Z,11.23
2019-02-20T23:04:35.338Z,12.40
2019-02-20T23:07:42.548Z,11.80
2019-02-20T23:10:49.658Z,13.20
2019-02-20T23:16:18.419Z,12.90
2019-02-20T23:19:06.233Z,13.87
2019-02-20T23:21:34.853Z,14.63
2019-02-20T23:24:03.486Z,13.77
2019-02-20T23:26:32.075Z,12.97
2019-02-20T23:29:00.678Z,13.47
2019-02-20T23:31:29.273Z,13.70
2019-02-20T23:33:57.851Z,13.17
2019-02-20T23:36:26.419Z,14.53
2019-02-20T23:38:55.007Z,14.30
2019-02-20T23:41:24.051Z,15.17
2019-02-20T23:43:52.618Z,14.27
2019-02-20T23:46:21.220Z,16.77
2019-02-20T23:48:49.792Z,15.30
2019-02-20T23:51:18.372Z,16.00
2019-02-20T23:53:47.413Z,15.70
2019-02-20T23:56:15.997Z,15.67
2019-02-20T23:58:44.587Z,17.37
